sensor_id;sensor_type;location;lat;lon;timestamp;P1;durP1;ratioP1;P2;durP2;ratioP2
10959;SDS011;5532;50.978;13.872;2022-07-06T00:02:13;11.43;;;7.70;;
10959;SDS011;5532;50.978;13.872;2022-07-06T00:04:38;10.60;;;8.35;;
10959;SDS011;5532;50.978;13.872;2022-07-06T00:07:03;9.15;;;8.02;;
10959;SDS011;5532;50.978;13.872;2022-07-06T00:09:29;9.75;;;8.32;;
10959;SDS011;5532;50.978;13.872;2022-07-06T00:11:54;9.87;;;8.30;;
10959;SDS011;5532;50.978;13.872;2022-07-06T00:14:19;15.25;;;9.50;;
10959;SDS011;5532;50.978;13.872;2022-07-06T00:16:45;13.15;;;9.65;;
10959;SDS011;5532;50.978;13.872;2022-07-06T00:19:11;12.63;;;9.88;;
10959;SDS011;5532;50.978;13.872;2022-07-06T00:21:43;12.80;;;10.02;;
10959;SDS011;5532;50.978;13.872;2022-07-06T00:24:08;14.02;;;10.60;;
10959;SDS011;5532;50.978;13.872;2022-07-06T00:26:33;20.07;;;11.27;;
10959;SDS011;5532;50.978;13.872;2022-07-06T00:28:59;15.23;;;10.70;;
10959;SDS011;5532;50.978;13.872;2022-07-06T00:31:24;14.27;;;9.63;;
10959;SDS011;5532;50.978;13.872;2022-07-06T00:33:50;13.48;;;10.35;;
10959;SDS011;5532;50.978;13.872;2022-07-06T00:36:15;14.67;;;9.97;;
10959;SDS011;5532;50.978;13.872;2022-07-06T00:38:40;13.63;;;9.32;;
10959;SDS011;5532;50.978;13.872;2022-07-06T00:41:06;12.43;;;8.90;;
10959;SDS011;5532;50.978;13.872;2022-07-06T00:43:51;12.93;;;9.13;;
10959;SDS011;5532;50.978;13.872;2022-07-06T00:46:21;12.02;;;8.40;;
10959;SDS011;5532;50.978;13.872;2022-07-06T00:48:48;11.52;;;8.05;;
10959;SDS011;5532;50.978;13.872;2022-07-06T00:51:13;10.38;;;8.60;;
10959;SDS011;5532;50.978;13.872;2022-07-06T00:53:39;8.73;;;7.80;;
10959;SDS011;5532;50.978;13.872;2022-07-06T00:56:05;9.38;;;7.82;;
10959;SDS011;5532;50.978;13.872;2022-07-06T00:58:30;9.55;;;7.70;;
10959;SDS011;5532;50.978;13.872;2022-07-06T01:00:55;9.95;;;7.18;;
10959;SDS011;5532;50.978;13.872;2022-07-06T01:03:21;10.52;;;7.75;;
10959;SDS011;5532;50.978;13.872;2022-07-06T01:05:46;12.05;;;7.88;;
10959;SDS011;5532;50.978;13.872;2022-07-06T01:08:11;13.55;;;8.10;;
10959;SDS011;5532;50.978;13.872;2022-07-06T01:10:37;13.40;;;8.15;;
10959;SDS011;5532;50.978;13.872;2022-07-06T01:13:02;10.20;;;7.43;;
10959;SDS011;5532;50.978;13.872;2022-07-06T01:15:29;10.35;;;7.72;;
10959;SDS011;5532;50.978;13.872;2022-07-06T01:17:54;12.43;;;8.05;;
10959;SDS011;5532;50.978;13.872;2022-07-06T01:20:20;10.75;;;8.15;;
10959;SDS011;5532;50.978;13.872;2022-07-06T01:22:47;10.65;;;7.70;;
10959;SDS011;5532;50.978;13.872;2022-07-06T01:25:13;11.55;;;8.25;;
10959;SDS011;5532;50.978;13.872;2022-07-06T01:27:39;9.48;;;8.02;;
10959;SDS011;5532;50.978;13.872;2022-07-06T01:30:06;11.25;;;7.70;;
10959;SDS011;5532;50.978;13.872;2022-07-06T01:32:33;9.50;;;8.15;;
10959;SDS011;5532;50.978;13.872;2022-07-06T01:34:59;9.40;;;7.30;;
10959;SDS011;5532;50.978;13.872;2022-07-06T01:37:24;8.93;;;7.15;;
10959;SDS011;5532;50.978;13.872;2022-07-06T01:39:49;11.07;;;7.63;;
10959;SDS011;5532;50.978;13.872;2022-07-06T01:42:15;8.40;;;7.43;;
10959;SDS011;5532;50.978;13.872;2022-07-06T01:44:42;8.60;;;7.40;;
10959;SDS011;5532;50.978;13.872;2022-07-06T01:47:07;8.43;;;7.18;;
10959;SDS011;5532;50.978;13.872;2022-07-06T01:49:32;10.38;;;7.68;;
10959;SDS011;5532;50.978;13.872;2022-07-06T01:51:58;8.35;;;7.30;;
10959;SDS011;5532;50.978;13.872;2022-07-06T01:54:23;10.73;;;7.93;;
10959;SDS011;5532;50.978;13.872;2022-07-06T01:56:48;8.60;;;7.22;;
10959;SDS011;5532;50.978;13.872;2022-07-06T01:59:14;8.93;;;7.30;;
10959;SDS011;5532;50.978;13.872;2022-07-06T02:01:39;8.02;;;7.05;;
10959;SDS011;5532;50.978;13.872;2022-07-06T02:04:04;8.10;;;6.55;;
10959;SDS011;5532;50.978;13.872;2022-07-06T02:06:30;10.87;;;7.03;;
10959;SDS011;5532;50.978;13.872;2022-07-06T02:08:55;9.35;;;6.50;;
10959;SDS011;5532;50.978;13.872;2022-07-06T02:11:21;7.15;;;6.45;;
10959;SDS011;5532;50.978;13.872;2022-07-06T02:13:46;9.07;;;6.13;;
10959;SDS011;5532;50.978;13.872;2022-07-06T02:16:12;8.85;;;6.53;;
10959;SDS011;5532;50.978;13.872;2022-07-06T02:18:38;8.43;;;6.75;;
10959;SDS011;5532;50.978;13.872;2022-07-06T02:21:04;8.05;;;6.63;;
10959;SDS011;5532;50.978;13.872;2022-07-06T02:23:30;7.65;;;6.38;;
10959;SDS011;5532;50.978;13.872;2022-07-06T02:25:55;7.97;;;6.57;;
10959;SDS011;5532;50.978;13.872;2022-07-06T02:28:20;7.88;;;7.07;;
10959;SDS011;5532;50.978;13.872;2022-07-06T02:30:46;9.43;;;6.47;;
10959;SDS011;5532;50.978;13.872;2022-07-06T02:33:11;10.90;;;6.55;;
10959;SDS011;5532;50.978;13.872;2022-07-06T02:35:37;9.70;;;6.22;;
10959;SDS011;5532;50.978;13.872;2022-07-06T02:38:07;8.45;;;6.93;;
10959;SDS011;5532;50.978;13.872;2022-07-06T02:40:32;8.43;;;7.18;;
10959;SDS011;5532;50.978;13.872;2022-07-06T02:42:57;8.80;;;7.05;;
10959;SDS011;5532;50.978;13.872;2022-07-06T02:45:23;9.77;;;6.95;;
10959;SDS011;5532;50.978;13.872;2022-07-06T02:47:48;10.52;;;7.85;;
10959;SDS011;5532;50.978;13.872;2022-07-06T02:50:13;8.87;;;7.97;;
10959;SDS011;5532;50.978;13.872;2022-07-06T02:52:39;7.88;;;6.97;;
10959;SDS011;5532;50.978;13.872;2022-07-06T02:55:04;10.98;;;8.20;;
10959;SDS011;5532;50.978;13.872;2022-07-06T02:57:30;10.98;;;8.18;;
10959;SDS011;5532;50.978;13.872;2022-07-06T02:59:55;10.80;;;8.38;;
10959;SDS011;5532;50.978;13.872;2022-07-06T03:02:20;11.40;;;8.55;;
10959;SDS011;5532;50.978;13.872;2022-07-06T03:04:46;11.43;;;8.57;;
10959;SDS011;5532;50.978;13.872;2022-07-06T03:07:11;8.68;;;7.60;;
10959;SDS011;5532;50.978;13.872;2022-07-06T03:09:36;8.80;;;7.63;;
10959;SDS011;5532;50.978;13.872;2022-07-06T03:12:02;11.65;;;7.80;;
10959;SDS011;5532;50.978;13.872;2022-07-06T03:14:27;8.93;;;7.80;;
10959;SDS011;5532;50.978;13.872;2022-07-06T03:16:53;10.05;;;8.15;;
10959;SDS011;5532;50.978;13.872;2022-07-06T03:19:19;11.35;;;8.00;;
10959;SDS011;5532;50.978;13.872;2022-07-06T03:21:44;11.38;;;8.10;;
10959;SDS011;5532;50.978;13.872;2022-07-06T03:24:09;12.43;;;9.20;;
10959;SDS011;5532;50.978;13.872;2022-07-06T03:26:35;11.55;;;8.52;;
10959;SDS011;5532;50.978;13.872;2022-07-06T03:29:00;9.63;;;8.63;;
10959;SDS011;5532;50.978;13.872;2022-07-06T03:31:26;11.57;;;9.10;;
10959;SDS011;5532;50.978;13.872;2022-07-06T03:33:51;11.27;;;8.93;;
10959;SDS011;5532;50.978;13.872;2022-07-06T03:36:17;10.68;;;8.75;;
10959;SDS011;5532;50.978;13.872;2022-07-06T03:38:42;10.40;;;7.95;;
10959;SDS011;5532;50.978;13.872;2022-07-06T03:41:08;9.30;;;8.30;;
10959;SDS011;5532;50.978;13.872;2022-07-06T03:43:33;10.07;;;8.18;;
10959;SDS011;5532;50.978;13.872;2022-07-06T03:45:59;9.55;;;8.60;;
10959;SDS011;5532;50.978;13.872;2022-07-06T03:48:24;13.30;;;8.77;;
10959;SDS011;5532;50.978;13.872;2022-07-06T03:50:49;12.77;;;9.07;;
10959;SDS011;5532;50.978;13.872;2022-07-06T03:53:15;14.85;;;9.52;;
10959;SDS011;5532;50.978;13.872;2022-07-06T03:55:40;11.63;;;7.75;;
10959;SDS011;5532;50.978;13.872;2022-07-06T03:58:05;9.60;;;8.57;;
10959;SDS011;5532;50.978;13.872;2022-07-06T04:00:31;12.40;;;9.98;;
10959;SDS011;5532;50.978;13.872;2022-07-06T04:02:56;10.85;;;9.23;;
10959;SDS011;5532;50.978;13.872;2022-07-06T04:05:21;11.80;;;9.77;;
10959;SDS011;5532;50.978;13.872;2022-07-06T04:07:47;11.77;;;9.77;;
10959;SDS011;5532;50.978;13.872;2022-07-06T04:10:14;12.43;;;9.90;;
10959;SDS011;5532;50.978;13.872;2022-07-06T04:12:40;17.13;;;12.25;;
10959;SDS011;5532;50.978;13.872;2022-07-06T04:15:06;13.68;;;9.30;;
10959;SDS011;5532;50.978;13.872;2022-07-06T04:17:32;10.50;;;9.40;;
10959;SDS011;5532;50.978;13.872;2022-07-06T04:20:16;10.50;;;9.10;;
10959;SDS011;5532;50.978;13.872;2022-07-06T04:22:41;13.63;;;9.52;;
10959;SDS011;5532;50.978;13.872;2022-07-06T04:25:07;10.95;;;8.77;;
10959;SDS011;5532;50.978;13.872;2022-07-06T04:27:33;11.73;;;9.35;;
10959;SDS011;5532;50.978;13.872;2022-07-06T04:29:59;10.90;;;8.90;;
10959;SDS011;5532;50.978;13.872;2022-07-06T04:32:24;11.15;;;8.43;;
10959;SDS011;5532;50.978;13.872;2022-07-06T04:34:49;12.20;;;8.40;;
10959;SDS011;5532;50.978;13.872;2022-07-06T04:37:15;9.45;;;8.40;;
10959;SDS011;5532;50.978;13.872;2022-07-06T04:39:40;12.80;;;9.88;;
10959;SDS011;5532;50.978;13.872;2022-07-06T04:42:05;12.40;;;8.95;;
10959;SDS011;5532;50.978;13.872;2022-07-06T04:44:31;12.02;;;8.88;;
10959;SDS011;5532;50.978;13.872;2022-07-06T04:46:56;12.73;;;9.00;;
10959;SDS011;5532;50.978;13.872;2022-07-06T04:49:21;11.35;;;9.15;;
10959;SDS011;5532;50.978;13.872;2022-07-06T04:51:47;12.13;;;8.98;;
10959;SDS011;5532;50.978;13.872;2022-07-06T04:54:12;12.10;;;8.60;;
10959;SDS011;5532;50.978;13.872;2022-07-06T04:56:37;11.68;;;8.43;;
10959;SDS011;5532;50.978;13.872;2022-07-06T04:59:03;9.70;;;8.73;;
10959;SDS011;5532;50.978;13.872;2022-07-06T05:01:28;13.52;;;9.20;;
10959;SDS011;5532;50.978;13.872;2022-07-06T05:03:53;9.98;;;8.23;;
10959;SDS011;5532;50.978;13.872;2022-07-06T05:06:19;11.03;;;8.13;;
10959;SDS011;5532;50.978;13.872;2022-07-06T05:08:45;9.80;;;8.10;;
10959;SDS011;5532;50.978;13.872;2022-07-06T05:11:10;9.70;;;8.10;;
10959;SDS011;5532;50.978;13.872;2022-07-06T05:13:36;10.80;;;8.70;;
10959;SDS011;5532;50.978;13.872;2022-07-06T05:16:01;10.07;;;8.13;;
10959;SDS011;5532;50.978;13.872;2022-07-06T05:18:26;9.43;;;7.27;;
10959;SDS011;5532;50.978;13.872;2022-07-06T05:20:51;10.23;;;7.53;;
10959;SDS011;5532;50.978;13.872;2022-07-06T05:23:17;9.93;;;7.60;;
10959;SDS011;5532;50.978;13.872;2022-07-06T05:25:42;10.82;;;7.55;;
10959;SDS011;5532;50.978;13.872;2022-07-06T05:28:07;9.43;;;7.87;;
10959;SDS011;5532;50.978;13.872;2022-07-06T05:30:33;8.55;;;7.68;;
10959;SDS011;5532;50.978;13.872;2022-07-06T05:32:58;11.15;;;8.23;;
10959;SDS011;5532;50.978;13.872;2022-07-06T05:35:23;8.52;;;7.63;;
10959;SDS011;5532;50.978;13.872;2022-07-06T05:37:49;9.93;;;7.10;;
10959;SDS011;5532;50.978;13.872;2022-07-06T05:40:14;9.88;;;7.00;;
10959;SDS011;5532;50.978;13.872;2022-07-06T05:42:39;7.93;;;6.70;;
10959;SDS011;5532;50.978;13.872;2022-07-06T05:45:05;12.13;;;7.78;;
10959;SDS011;5532;50.978;13.872;2022-07-06T05:47:31;7.82;;;6.85;;
10959;SDS011;5532;50.978;13.872;2022-07-06T05:50:15;7.65;;;6.43;;
10959;SDS011;5532;50.978;13.872;2022-07-06T05:52:42;7.22;;;5.63;;
10959;SDS011;5532;50.978;13.872;2022-07-06T05:55:10;7.53;;;5.13;;
10959;SDS011;5532;50.978;13.872;2022-07-06T05:57:36;6.95;;;5.00;;
10959;SDS011;5532;50.978;13.872;2022-07-06T06:00:02;5.53;;;5.03;;
10959;SDS011;5532;50.978;13.872;2022-07-06T06:02:36;6.50;;;4.85;;
10959;SDS011;5532;50.978;13.872;2022-07-06T06:05:04;8.15;;;5.25;;
10959;SDS011;5532;50.978;13.872;2022-07-06T06:07:32;5.80;;;5.15;;
10959;SDS011;5532;50.978;13.872;2022-07-06T06:09:58;7.70;;;5.53;;
10959;SDS011;5532;50.978;13.872;2022-07-06T06:12:23;7.05;;;4.90;;
10959;SDS011;5532;50.978;13.872;2022-07-06T06:14:48;7.03;;;5.13;;
10959;SDS011;5532;50.978;13.872;2022-07-06T06:17:14;6.93;;;5.43;;
10959;SDS011;5532;50.978;13.872;2022-07-06T06:19:39;6.03;;;5.30;;
10959;SDS011;5532;50.978;13.872;2022-07-06T06:22:04;6.90;;;3.95;;
10959;SDS011;5532;50.978;13.872;2022-07-06T06:24:30;4.30;;;3.80;;
10959;SDS011;5532;50.978;13.872;2022-07-06T06:26:55;7.50;;;4.47;;
10959;SDS011;5532;50.978;13.872;2022-07-06T06:29:21;5.63;;;3.90;;
10959;SDS011;5532;50.978;13.872;2022-07-06T06:31:46;4.55;;;3.42;;
10959;SDS011;5532;50.978;13.872;2022-07-06T06:34:11;3.72;;;3.38;;
10959;SDS011;5532;50.978;13.872;2022-07-06T06:36:37;4.03;;;3.58;;
10959;SDS011;5532;50.978;13.872;2022-07-06T06:39:02;7.53;;;4.10;;
10959;SDS011;5532;50.978;13.872;2022-07-06T06:41:27;5.10;;;2.97;;
10959;SDS011;5532;50.978;13.872;2022-07-06T06:43:53;5.68;;;3.65;;
10959;SDS011;5532;50.978;13.872;2022-07-06T06:46:18;3.53;;;2.92;;
10959;SDS011;5532;50.978;13.872;2022-07-06T06:48:44;3.67;;;2.67;;
10959;SDS011;5532;50.978;13.872;2022-07-06T06:51:09;4.97;;;2.70;;
10959;SDS011;5532;50.978;13.872;2022-07-06T06:53:34;3.40;;;2.55;;
10959;SDS011;5532;50.978;13.872;2022-07-06T06:56:00;3.30;;;2.50;;
10959;SDS011;5532;50.978;13.872;2022-07-06T06:58:25;4.32;;;2.75;;
10959;SDS011;5532;50.978;13.872;2022-07-06T07:00:50;6.53;;;2.75;;
10959;SDS011;5532;50.978;13.872;2022-07-06T07:03:16;4.95;;;2.70;;
10959;SDS011;5532;50.978;13.872;2022-07-06T07:05:41;3.17;;;2.42;;
10959;SDS011;5532;50.978;13.872;2022-07-06T07:08:07;5.18;;;2.60;;
10959;SDS011;5532;50.978;13.872;2022-07-06T07:10:32;6.53;;;2.58;;
10959;SDS011;5532;50.978;13.872;2022-07-06T07:12:58;3.92;;;2.83;;
10959;SDS011;5532;50.978;13.872;2022-07-06T07:15:24;4.00;;;2.80;;
10959;SDS011;5532;50.978;13.872;2022-07-06T07:17:49;4.57;;;2.58;;
10959;SDS011;5532;50.978;13.872;2022-07-06T07:20:15;2.88;;;2.38;;
10959;SDS011;5532;50.978;13.872;2022-07-06T07:22:40;5.45;;;2.67;;
10959;SDS011;5532;50.978;13.872;2022-07-06T07:25:06;3.47;;;2.60;;
10959;SDS011;5532;50.978;13.872;2022-07-06T07:27:32;5.60;;;2.40;;
10959;SDS011;5532;50.978;13.872;2022-07-06T07:29:57;2.40;;;2.17;;
10959;SDS011;5532;50.978;13.872;2022-07-06T07:32:23;3.53;;;2.50;;
10959;SDS011;5532;50.978;13.872;2022-07-06T07:34:48;5.72;;;2.35;;
10959;SDS011;5532;50.978;13.872;2022-07-06T07:37:14;5.30;;;2.10;;
10959;SDS011;5532;50.978;13.872;2022-07-06T07:39:39;3.22;;;2.17;;
10959;SDS011;5532;50.978;13.872;2022-07-06T07:42:05;2.83;;;2.17;;
10959;SDS011;5532;50.978;13.872;2022-07-06T07:44:30;4.07;;;2.25;;
10959;SDS011;5532;50.978;13.872;2022-07-06T07:46:55;3.63;;;2.05;;
10959;SDS011;5532;50.978;13.872;2022-07-06T07:49:21;2.07;;;1.87;;
10959;SDS011;5532;50.978;13.872;2022-07-06T07:51:47;2.92;;;2.10;;
10959;SDS011;5532;50.978;13.872;2022-07-06T07:54:13;3.53;;;1.98;;
10959;SDS011;5532;50.978;13.872;2022-07-06T07:56:38;5.15;;;2.20;;
10959;SDS011;5532;50.978;13.872;2022-07-06T07:59:07;4.57;;;2.17;;
10959;SDS011;5532;50.978;13.872;2022-07-06T08:01:32;2.75;;;1.77;;
10959;SDS011;5532;50.978;13.872;2022-07-06T08:03:58;6.07;;;1.90;;
10959;SDS011;5532;50.978;13.872;2022-07-06T08:06:24;2.00;;;1.80;;
10959;SDS011;5532;50.978;13.872;2022-07-06T08:08:50;3.42;;;1.83;;
10959;SDS011;5532;50.978;13.872;2022-07-06T08:11:15;3.75;;;1.80;;
10959;SDS011;5532;50.978;13.872;2022-07-06T08:13:41;2.00;;;1.60;;
10959;SDS011;5532;50.978;13.872;2022-07-06T08:16:06;2.10;;;1.70;;
10959;SDS011;5532;50.978;13.872;2022-07-06T08:18:32;5.18;;;1.70;;
10959;SDS011;5532;50.978;13.872;2022-07-06T08:20:57;2.67;;;1.45;;
10959;SDS011;5532;50.978;13.872;2022-07-06T08:23:23;3.28;;;1.60;;
10959;SDS011;5532;50.978;13.872;2022-07-06T08:25:48;2.65;;;1.45;;
10959;SDS011;5532;50.978;13.872;2022-07-06T08:28:14;1.95;;;1.60;;
10959;SDS011;5532;50.978;13.872;2022-07-06T08:30:39;2.25;;;1.60;;
10959;SDS011;5532;50.978;13.872;2022-07-06T08:33:04;2.88;;;1.60;;
10959;SDS011;5532;50.978;13.872;2022-07-06T08:35:30;2.80;;;1.90;;
10959;SDS011;5532;50.978;13.872;2022-07-06T08:37:56;4.53;;;1.70;;
10959;SDS011;5532;50.978;13.872;2022-07-06T08:40:21;1.73;;;1.48;;
10959;SDS011;5532;50.978;13.872;2022-07-06T08:42:47;2.40;;;1.50;;
10959;SDS011;5532;50.978;13.872;2022-07-06T08:45:19;3.92;;;1.48;;
10959;SDS011;5532;50.978;13.872;2022-07-06T08:47:44;3.42;;;1.30;;
10959;SDS011;5532;50.978;13.872;2022-07-06T08:50:09;2.55;;;1.48;;
10959;SDS011;5532;50.978;13.872;2022-07-06T08:52:35;2.60;;;1.20;;
10959;SDS011;5532;50.978;13.872;2022-07-06T08:55:02;3.03;;;1.33;;
10959;SDS011;5532;50.978;13.872;2022-07-06T08:57:28;3.40;;;1.25;;
10959;SDS011;5532;50.978;13.872;2022-07-06T08:59:53;2.45;;;1.40;;
10959;SDS011;5532;50.978;13.872;2022-07-06T09:02:19;2.10;;;1.17;;
10959;SDS011;5532;50.978;13.872;2022-07-06T09:04:44;3.05;;;1.33;;
10959;SDS011;5532;50.978;13.872;2022-07-06T09:07:11;2.63;;;1.30;;
10959;SDS011;5532;50.978;13.872;2022-07-06T09:09:37;2.50;;;2.10;;
10959;SDS011;5532;50.978;13.872;2022-07-06T09:12:02;2.15;;;1.30;;
10959;SDS011;5532;50.978;13.872;2022-07-06T09:14:28;1.90;;;1.00;;
10959;SDS011;5532;50.978;13.872;2022-07-06T09:17:04;3.38;;;1.20;;
10959;SDS011;5532;50.978;13.872;2022-07-06T09:19:30;4.28;;;1.80;;
10959;SDS011;5532;50.978;13.872;2022-07-06T09:21:57;2.50;;;1.30;;
10959;SDS011;5532;50.978;13.872;2022-07-06T09:24:22;1.73;;;1.17;;
10959;SDS011;5532;50.978;13.872;2022-07-06T09:26:47;3.00;;;1.38;;
10959;SDS011;5532;50.978;13.872;2022-07-06T09:29:13;2.90;;;1.30;;
10959;SDS011;5532;50.978;13.872;2022-07-06T09:31:39;3.00;;;1.10;;
10959;SDS011;5532;50.978;13.872;2022-07-06T09:34:08;3.58;;;1.80;;
10959;SDS011;5532;50.978;13.872;2022-07-06T09:36:36;3.00;;;1.20;;
10959;SDS011;5532;50.978;13.872;2022-07-06T09:41:51;2.92;;;1.17;;
10959;SDS011;5532;50.978;13.872;2022-07-06T09:44:25;2.28;;;1.30;;
10959;SDS011;5532;50.978;13.872;2022-07-06T09:46:51;1.35;;;1.10;;
10959;SDS011;5532;50.978;13.872;2022-07-06T09:49:20;2.97;;;1.30;;
10959;SDS011;5532;50.978;13.872;2022-07-06T09:51:46;2.30;;;1.88;;
10959;SDS011;5532;50.978;13.872;2022-07-06T09:54:13;2.50;;;1.30;;
10959;SDS011;5532;50.978;13.872;2022-07-06T09:56:40;3.10;;;1.35;;
10959;SDS011;5532;50.978;13.872;2022-07-06T09:59:12;2.65;;;1.20;;
10959;SDS011;5532;50.978;13.872;2022-07-06T10:01:39;18.90;;;10.87;;
10959;SDS011;5532;50.978;13.872;2022-07-06T10:04:08;3.20;;;1.52;;
10959;SDS011;5532;50.978;13.872;2022-07-06T10:06:35;4.03;;;1.45;;
10959;SDS011;5532;50.978;13.872;2022-07-06T10:09:01;3.15;;;1.70;;
10959;SDS011;5532;50.978;13.872;2022-07-06T10:11:30;4.60;;;1.90;;
10959;SDS011;5532;50.978;13.872;2022-07-06T10:14:22;2.08;;;1.20;;
10959;SDS011;5532;50.978;13.872;2022-07-06T10:16:49;2.00;;;1.25;;
10959;SDS011;5532;50.978;13.872;2022-07-06T10:19:15;1.92;;;1.40;;
10959;SDS011;5532;50.978;13.872;2022-07-06T10:21:41;6.30;;;1.60;;
10959;SDS011;5532;50.978;13.872;2022-07-06T10:24:07;3.88;;;1.40;;
10959;SDS011;5532;50.978;13.872;2022-07-06T10:26:34;1.92;;;1.30;;
10959;SDS011;5532;50.978;13.872;2022-07-06T10:29:00;2.10;;;1.25;;
10959;SDS011;5532;50.978;13.872;2022-07-06T10:31:27;3.17;;;1.58;;
10959;SDS011;5532;50.978;13.872;2022-07-06T10:33:56;1.55;;;1.20;;
10959;SDS011;5532;50.978;13.872;2022-07-06T10:36:22;3.28;;;1.35;;
10959;SDS011;5532;50.978;13.872;2022-07-06T10:38:49;2.72;;;1.88;;
10959;SDS011;5532;50.978;13.872;2022-07-06T10:41:15;5.63;;;1.90;;
10959;SDS011;5532;50.978;13.872;2022-07-06T10:43:45;1.40;;;1.30;;
10959;SDS011;5532;50.978;13.872;2022-07-06T10:46:14;2.55;;;1.42;;
10959;SDS011;5532;50.978;13.872;2022-07-06T10:48:42;3.30;;;1.77;;
10959;SDS011;5532;50.978;13.872;2022-07-06T10:51:11;2.03;;;1.60;;
10959;SDS011;5532;50.978;13.872;2022-07-06T10:53:37;4.82;;;1.52;;
10959;SDS011;5532;50.978;13.872;2022-07-06T10:56:10;2.20;;;1.30;;
10959;SDS011;5532;50.978;13.872;2022-07-06T10:58:48;2.38;;;1.48;;
10959;SDS011;5532;50.978;13.872;2022-07-06T11:01:19;2.88;;;1.40;;
10959;SDS011;5532;50.978;13.872;2022-07-06T11:03:52;1.90;;;1.20;;
10959;SDS011;5532;50.978;13.872;2022-07-06T11:06:39;1.45;;;1.15;;
10959;SDS011;5532;50.978;13.872;2022-07-06T11:09:09;3.90;;;1.48;;
10959;SDS011;5532;50.978;13.872;2022-07-06T11:11:41;1.60;;;1.50;;
10959;SDS011;5532;50.978;13.872;2022-07-06T11:14:14;3.22;;;2.00;;
10959;SDS011;5532;50.978;13.872;2022-07-06T11:19:21;4.80;;;1.40;;
10959;SDS011;5532;50.978;13.872;2022-07-06T11:21:52;1.67;;;1.40;;
10959;SDS011;5532;50.978;13.872;2022-07-06T11:24:30;4.30;;;1.50;;
10959;SDS011;5532;50.978;13.872;2022-07-06T11:26:58;3.20;;;1.67;;
10959;SDS011;5532;50.978;13.872;2022-07-06T11:29:25;1.65;;;1.42;;
10959;SDS011;5532;50.978;13.872;2022-07-06T11:31:55;3.15;;;1.38;;
10959;SDS011;5532;50.978;13.872;2022-07-06T11:34:22;3.70;;;1.40;;
10959;SDS011;5532;50.978;13.872;2022-07-06T11:37:01;2.67;;;1.40;;
10959;SDS011;5532;50.978;13.872;2022-07-06T11:39:28;4.55;;;1.55;;
10959;SDS011;5532;50.978;13.872;2022-07-06T11:42:03;2.28;;;1.10;;
10959;SDS011;5532;50.978;13.872;2022-07-06T11:44:33;2.70;;;1.40;;
10959;SDS011;5532;50.978;13.872;2022-07-06T11:46:59;3.30;;;1.40;;
10959;SDS011;5532;50.978;13.872;2022-07-06T11:49:31;3.10;;;1.48;;
10959;SDS011;5532;50.978;13.872;2022-07-06T11:52:09;2.40;;;1.33;;
10959;SDS011;5532;50.978;13.872;2022-07-06T11:54:39;3.20;;;1.40;;
10959;SDS011;5532;50.978;13.872;2022-07-06T11:57:09;5.80;;;1.73;;
10959;SDS011;5532;50.978;13.872;2022-07-06T11:59:39;3.40;;;1.40;;
10959;SDS011;5532;50.978;13.872;2022-07-06T12:02:12;3.72;;;1.27;;
10959;SDS011;5532;50.978;13.872;2022-07-06T12:05:01;4.00;;;1.45;;
10959;SDS011;5532;50.978;13.872;2022-07-06T12:07:37;1.50;;;1.40;;
10959;SDS011;5532;50.978;13.872;2022-07-06T12:10:20;4.00;;;2.17;;
10959;SDS011;5532;50.978;13.872;2022-07-06T12:13:05;3.95;;;1.50;;
10959;SDS011;5532;50.978;13.872;2022-07-06T12:15:33;2.05;;;1.48;;
10959;SDS011;5532;50.978;13.872;2022-07-06T12:21:17;2.70;;;1.73;;
10959;SDS011;5532;50.978;13.872;2022-07-06T12:27:24;3.72;;;1.30;;
10959;SDS011;5532;50.978;13.872;2022-07-06T12:30:14;3.92;;;1.50;;
10959;SDS011;5532;50.978;13.872;2022-07-06T12:40:13;3.78;;;1.65;;
10959;SDS011;5532;50.978;13.872;2022-07-06T12:43:44;2.65;;;1.45;;
10959;SDS011;5532;50.978;13.872;2022-07-06T12:46:37;1.65;;;1.48;;
10959;SDS011;5532;50.978;13.872;2022-07-06T12:49:19;3.70;;;1.58;;
10959;SDS011;5532;50.978;13.872;2022-07-06T12:52:39;2.75;;;1.60;;
10959;SDS011;5532;50.978;13.872;2022-07-06T12:55:40;1.42;;;1.00;;
10959;SDS011;5532;50.978;13.872;2022-07-06T12:58:15;1.40;;;1.30;;
10959;SDS011;5532;50.978;13.872;2022-07-06T13:00:53;3.08;;;1.60;;
10959;SDS011;5532;50.978;13.872;2022-07-06T13:03:18;4.63;;;1.60;;
10959;SDS011;5532;50.978;13.872;2022-07-06T13:05:49;4.93;;;1.50;;
10959;SDS011;5532;50.978;13.872;2022-07-06T13:08:17;1.98;;;1.23;;
10959;SDS011;5532;50.978;13.872;2022-07-06T13:10:42;2.35;;;1.50;;
10959;SDS011;5532;50.978;13.872;2022-07-06T13:13:10;7.50;;;1.58;;
10959;SDS011;5532;50.978;13.872;2022-07-06T13:15:35;2.30;;;1.23;;
10959;SDS011;5532;50.978;13.872;2022-07-06T13:18:00;3.83;;;1.25;;
10959;SDS011;5532;50.978;13.872;2022-07-06T13:20:26;3.47;;;1.40;;
10959;SDS011;5532;50.978;13.872;2022-07-06T13:22:54;3.10;;;1.45;;
10959;SDS011;5532;50.978;13.872;2022-07-06T13:25:22;1.73;;;1.42;;
10959;SDS011;5532;50.978;13.872;2022-07-06T13:27:48;2.85;;;1.50;;
10959;SDS011;5532;50.978;13.872;2022-07-06T13:30:13;2.83;;;1.33;;
10959;SDS011;5532;50.978;13.872;2022-07-06T13:32:39;3.58;;;1.50;;
10959;SDS011;5532;50.978;13.872;2022-07-06T13:35:04;1.55;;;1.38;;
10959;SDS011;5532;50.978;13.872;2022-07-06T13:37:34;5.32;;;1.58;;
10959;SDS011;5532;50.978;13.872;2022-07-06T13:40:00;4.00;;;1.42;;
10959;SDS011;5532;50.978;13.872;2022-07-06T13:42:28;3.53;;;1.55;;
10959;SDS011;5532;50.978;13.872;2022-07-06T13:44:53;1.95;;;1.45;;
10959;SDS011;5532;50.978;13.872;2022-07-06T13:47:19;2.95;;;1.35;;
10959;SDS011;5532;50.978;13.872;2022-07-06T13:49:45;3.45;;;1.10;;
10959;SDS011;5532;50.978;13.872;2022-07-06T13:52:12;3.53;;;1.60;;
10959;SDS011;5532;50.978;13.872;2022-07-06T13:54:38;1.63;;;1.30;;
10959;SDS011;5532;50.978;13.872;2022-07-06T13:57:04;2.83;;;1.20;;
10959;SDS011;5532;50.978;13.872;2022-07-06T13:59:33;2.08;;;1.20;;
10959;SDS011;5532;50.978;13.872;2022-07-06T14:01:59;2.65;;;1.33;;
10959;SDS011;5532;50.978;13.872;2022-07-06T14:04:24;3.95;;;2.40;;
10959;SDS011;5532;50.978;13.872;2022-07-06T14:06:50;2.20;;;1.30;;
10959;SDS011;5532;50.978;13.872;2022-07-06T14:09:16;2.40;;;1.50;;
10959;SDS011;5532;50.978;13.872;2022-07-06T14:11:41;2.90;;;1.23;;
10959;SDS011;5532;50.978;13.872;2022-07-06T14:14:07;1.40;;;1.13;;
10959;SDS011;5532;50.978;13.872;2022-07-06T14:16:35;1.40;;;1.20;;
10959;SDS011;5532;50.978;13.872;2022-07-06T14:19:00;4.13;;;1.73;;
10959;SDS011;5532;50.978;13.872;2022-07-06T14:21:26;3.28;;;1.67;;
10959;SDS011;5532;50.978;13.872;2022-07-06T14:23:51;2.47;;;1.67;;
10959;SDS011;5532;50.978;13.872;2022-07-06T14:26:21;2.88;;;1.52;;
10959;SDS011;5532;50.978;13.872;2022-07-06T14:28:46;2.67;;;1.35;;
10959;SDS011;5532;50.978;13.872;2022-07-06T14:31:12;3.15;;;1.17;;
10959;SDS011;5532;50.978;13.872;2022-07-06T14:33:37;3.25;;;1.33;;
10959;SDS011;5532;50.978;13.872;2022-07-06T14:36:08;1.63;;;1.25;;
10959;SDS011;5532;50.978;13.872;2022-07-06T14:38:34;1.95;;;1.10;;
10959;SDS011;5532;50.978;13.872;2022-07-06T14:41:02;3.28;;;1.40;;
10959;SDS011;5532;50.978;13.872;2022-07-06T14:43:31;5.85;;;1.52;;
10959;SDS011;5532;50.978;13.872;2022-07-06T14:45:56;3.67;;;1.23;;
10959;SDS011;5532;50.978;13.872;2022-07-06T14:48:22;6.88;;;1.40;;
10959;SDS011;5532;50.978;13.872;2022-07-06T14:50:50;2.78;;;1.10;;
10959;SDS011;5532;50.978;13.872;2022-07-06T14:53:18;1.75;;;1.30;;
10959;SDS011;5532;50.978;13.872;2022-07-06T14:55:43;2.10;;;1.40;;
10959;SDS011;5532;50.978;13.872;2022-07-06T14:58:09;4.00;;;1.33;;
10959;SDS011;5532;50.978;13.872;2022-07-06T15:00:34;1.98;;;1.13;;
10959;SDS011;5532;50.978;13.872;2022-07-06T15:02:59;1.52;;;1.10;;
10959;SDS011;5532;50.978;13.872;2022-07-06T15:05:25;2.80;;;1.20;;